sensor_id;sensor_type;location;lat;lon;timestamp;P1;durP1;ratioP1;P2;durP2;ratioP2
67602;SDS011;54417;47.454;18.918;2022-09-06T00:05:17;8.63;;;4.85;;
67602;SDS011;54417;47.454;18.918;2022-09-06T00:10:41;6.15;;;4.68;;
67602;SDS011;54417;47.454;18.918;2022-09-06T00:16:07;8.98;;;4.75;;
67602;SDS011;54417;47.454;18.918;2022-09-06T00:21:32;9.45;;;4.72;;
67602;SDS011;54417;47.454;18.918;2022-09-06T00:26:56;7.80;;;4.70;;
67602;SDS011;54417;47.454;18.918;2022-09-06T00:32:21;5.00;;;4.50;;
67602;SDS011;54417;47.454;18.918;2022-09-06T00:37:45;5.93;;;4.78;;
67602;SDS011;54417;47.454;18.918;2022-09-06T00:43:09;5.25;;;4.18;;
67602;SDS011;54417;47.454;18.918;2022-09-06T00:48:34;4.53;;;3.83;;
67602;SDS011;54417;47.454;18.918;2022-09-06T00:54:01;4.35;;;3.80;;
67602;SDS011;54417;47.454;18.918;2022-09-06T00:59:26;7.93;;;4.70;;
67602;SDS011;54417;47.454;18.918;2022-09-06T01:04:53;6.90;;;4.90;;
67602;SDS011;54417;47.454;18.918;2022-09-06T01:16:14;5.78;;;4.63;;
67602;SDS011;54417;47.454;18.918;2022-09-06T01:21:45;4.93;;;4.45;;
67602;SDS011;54417;47.454;18.918;2022-09-06T01:33:26;5.72;;;4.50;;
67602;SDS011;54417;47.454;18.918;2022-09-06T01:38:55;5.33;;;4.03;;
67602;SDS011;54417;47.454;18.918;2022-09-06T01:44:20;5.35;;;3.95;;
67602;SDS011;54417;47.454;18.918;2022-09-06T01:49:47;5.05;;;4.05;;
67602;SDS011;54417;47.454;18.918;2022-09-06T01:55:21;4.28;;;3.85;;
67602;SDS011;54417;47.454;18.918;2022-09-06T02:00:55;5.40;;;3.97;;
67602;SDS011;54417;47.454;18.918;2022-09-06T02:06:25;5.22;;;4.63;;
67602;SDS011;54417;47.454;18.918;2022-09-06T02:11:54;6.75;;;5.15;;
67602;SDS011;54417;47.454;18.918;2022-09-06T02:17:22;5.28;;;4.07;;
67602;SDS011;54417;47.454;18.918;2022-09-06T02:22:50;5.18;;;4.72;;
67602;SDS011;54417;47.454;18.918;2022-09-06T02:28:18;13.23;;;4.47;;
67602;SDS011;54417;47.454;18.918;2022-09-06T02:33:44;7.63;;;4.82;;
67602;SDS011;54417;47.454;18.918;2022-09-06T02:39:09;9.35;;;4.50;;
67602;SDS011;54417;47.454;18.918;2022-09-06T02:44:33;5.20;;;4.57;;
67602;SDS011;54417;47.454;18.918;2022-09-06T02:49:58;5.53;;;4.47;;
67602;SDS011;54417;47.454;18.918;2022-09-06T02:55:22;6.70;;;4.80;;
67602;SDS011;54417;47.454;18.918;2022-09-06T03:00:45;8.52;;;4.80;;
67602;SDS011;54417;47.454;18.918;2022-09-06T03:06:11;5.72;;;4.28;;
67602;SDS011;54417;47.454;18.918;2022-09-06T03:11:34;5.55;;;4.68;;
67602;SDS011;54417;47.454;18.918;2022-09-06T03:16:58;6.00;;;4.63;;
67602;SDS011;54417;47.454;18.918;2022-09-06T03:22:23;7.18;;;5.50;;
67602;SDS011;54417;47.454;18.918;2022-09-06T03:27:46;10.82;;;5.10;;
67602;SDS011;54417;47.454;18.918;2022-09-06T03:33:10;10.50;;;5.60;;
67602;SDS011;54417;47.454;18.918;2022-09-06T03:38:36;11.07;;;5.35;;
67602;SDS011;54417;47.454;18.918;2022-09-06T03:44:00;7.55;;;5.57;;
67602;SDS011;54417;47.454;18.918;2022-09-06T03:49:23;6.80;;;5.47;;
67602;SDS011;54417;47.454;18.918;2022-09-06T03:54:48;8.98;;;5.53;;
67602;SDS011;54417;47.454;18.918;2022-09-06T04:00:12;10.35;;;5.35;;
67602;SDS011;54417;47.454;18.918;2022-09-06T04:05:37;9.15;;;5.18;;
67602;SDS011;54417;47.454;18.918;2022-09-06T04:11:03;7.03;;;5.38;;
67602;SDS011;54417;47.454;18.918;2022-09-06T04:16:28;7.20;;;5.07;;
67602;SDS011;54417;47.454;18.918;2022-09-06T04:21:51;5.80;;;5.18;;
67602;SDS011;54417;47.454;18.918;2022-09-06T04:27:16;6.93;;;5.32;;
67602;SDS011;54417;47.454;18.918;2022-09-06T04:32:40;6.85;;;5.55;;
67602;SDS011;54417;47.454;18.918;2022-09-06T04:38:04;8.23;;;5.88;;
67602;SDS011;54417;47.454;18.918;2022-09-06T04:43:29;8.45;;;5.82;;
67602;SDS011;54417;47.454;18.918;2022-09-06T04:48:53;6.53;;;5.88;;
67602;SDS011;54417;47.454;18.918;2022-09-06T04:54:17;11.10;;;5.97;;
67602;SDS011;54417;47.454;18.918;2022-09-06T04:59:42;7.57;;;5.32;;
67602;SDS011;54417;47.454;18.918;2022-09-06T05:05:06;5.97;;;5.25;;
67602;SDS011;54417;47.454;18.918;2022-09-06T05:10:30;8.02;;;5.30;;
67602;SDS011;54417;47.454;18.918;2022-09-06T05:15:58;5.65;;;5.03;;
67602;SDS011;54417;47.454;18.918;2022-09-06T05:21:22;8.57;;;6.22;;
67602;SDS011;54417;47.454;18.918;2022-09-06T05:26:46;6.97;;;5.90;;
67602;SDS011;54417;47.454;18.918;2022-09-06T05:32:11;13.73;;;5.50;;
67602;SDS011;54417;47.454;18.918;2022-09-06T05:37:35;7.32;;;4.82;;
67602;SDS011;54417;47.454;18.918;2022-09-06T05:42:58;6.18;;;3.75;;
67602;SDS011;54417;47.454;18.918;2022-09-06T05:48:23;3.15;;;2.80;;
67602;SDS011;54417;47.454;18.918;2022-09-06T05:53:50;6.47;;;3.17;;
67602;SDS011;54417;47.454;18.918;2022-09-06T05:59:14;4.18;;;2.97;;
67602;SDS011;54417;47.454;18.918;2022-09-06T06:04:39;5.03;;;2.50;;
67602;SDS011;54417;47.454;18.918;2022-09-06T06:10:03;3.00;;;2.67;;
67602;SDS011;54417;47.454;18.918;2022-09-06T06:15:27;3.00;;;2.60;;
67602;SDS011;54417;47.454;18.918;2022-09-06T06:20:52;4.10;;;2.70;;
67602;SDS011;54417;47.454;18.918;2022-09-06T06:26:30;3.20;;;2.60;;
67602;SDS011;54417;47.454;18.918;2022-09-06T06:31:55;7.38;;;2.78;;
67602;SDS011;54417;47.454;18.918;2022-09-06T06:37:20;4.70;;;3.00;;
67602;SDS011;54417;47.454;18.918;2022-09-06T06:42:44;4.03;;;2.60;;
67602;SDS011;54417;47.454;18.918;2022-09-06T06:48:07;3.47;;;2.80;;
67602;SDS011;54417;47.454;18.918;2022-09-06T06:53:32;7.30;;;2.72;;
67602;SDS011;54417;47.454;18.918;2022-09-06T06:58:57;4.80;;;2.63;;
67602;SDS011;54417;47.454;18.918;2022-09-06T07:04:22;6.40;;;3.15;;
67602;SDS011;54417;47.454;18.918;2022-09-06T07:09:47;4.18;;;2.88;;
67602;SDS011;54417;47.454;18.918;2022-09-06T07:15:33;5.68;;;3.00;;
67602;SDS011;54417;47.454;18.918;2022-09-06T07:20:57;6.25;;;3.55;;
67602;SDS011;54417;47.454;18.918;2022-09-06T07:26:42;6.82;;;3.20;;
67602;SDS011;54417;47.454;18.918;2022-09-06T07:32:25;7.20;;;3.20;;
67602;SDS011;54417;47.454;18.918;2022-09-06T07:37:53;5.65;;;3.08;;
67602;SDS011;54417;47.454;18.918;2022-09-06T07:43:19;4.30;;;3.50;;
67602;SDS011;54417;47.454;18.918;2022-09-06T07:48:43;17.05;;;4.60;;
67602;SDS011;54417;47.454;18.918;2022-09-06T07:54:08;9.48;;;3.50;;
67602;SDS011;54417;47.454;18.918;2022-09-06T07:59:53;11.00;;;3.20;;
67602;SDS011;54417;47.454;18.918;2022-09-06T08:05:17;4.82;;;2.60;;
67602;SDS011;54417;47.454;18.918;2022-09-06T08:11:03;5.43;;;2.97;;
67602;SDS011;54417;47.454;18.918;2022-09-06T08:16:30;4.22;;;3.35;;
67602;SDS011;54417;47.454;18.918;2022-09-06T08:21:55;5.88;;;3.03;;
67602;SDS011;54417;47.454;18.918;2022-09-06T08:27:19;10.85;;;3.40;;
67602;SDS011;54417;47.454;18.918;2022-09-06T08:32:44;4.00;;;3.00;;
67602;SDS011;54417;47.454;18.918;2022-09-06T08:38:07;8.88;;;3.10;;
67602;SDS011;54417;47.454;18.918;2022-09-06T08:43:31;5.38;;;3.17;;
67602;SDS011;54417;47.454;18.918;2022-09-06T08:48:56;9.15;;;3.42;;
67602;SDS011;54417;47.454;18.918;2022-09-06T08:54:21;5.43;;;3.38;;
67602;SDS011;54417;47.454;18.918;2022-09-06T08:59:50;9.60;;;3.92;;
67602;SDS011;54417;47.454;18.918;2022-09-06T09:05:22;8.15;;;3.50;;
67602;SDS011;54417;47.454;18.918;2022-09-06T09:16:13;6.50;;;3.90;;
67602;SDS011;54417;47.454;18.918;2022-09-06T09:21:39;22.00;;;4.53;;
67602;SDS011;54417;47.454;18.918;2022-09-06T09:27:04;9.68;;;3.13;;
67602;SDS011;54417;47.454;18.918;2022-09-06T09:32:33;4.85;;;3.40;;
67602;SDS011;54417;47.454;18.918;2022-09-06T09:38:00;5.88;;;3.42;;
67602;SDS011;54417;47.454;18.918;2022-09-06T09:43:33;9.00;;;3.75;;
67602;SDS011;54417;47.454;18.918;2022-09-06T09:49:01;6.80;;;2.83;;
67602;SDS011;54417;47.454;18.918;2022-09-06T09:54:30;6.53;;;2.90;;
67602;SDS011;54417;47.454;18.918;2022-09-06T09:59:57;7.60;;;3.15;;
67602;SDS011;54417;47.454;18.918;2022-09-06T10:05:25;3.42;;;3.13;;
67602;SDS011;54417;47.454;18.918;2022-09-06T10:10:50;8.45;;;3.42;;
67602;SDS011;54417;47.454;18.918;2022-09-06T10:16:14;7.38;;;2.88;;
67602;SDS011;54417;47.454;18.918;2022-09-06T10:21:38;10.48;;;3.00;;
67602;SDS011;54417;47.454;18.918;2022-09-06T10:27:03;4.45;;;2.50;;
67602;SDS011;54417;47.454;18.918;2022-09-06T10:32:31;8.63;;;2.50;;
67602;SDS011;54417;47.454;18.918;2022-09-06T10:38:16;6.70;;;2.53;;
67602;SDS011;54417;47.454;18.918;2022-09-06T10:43:55;3.58;;;2.47;;
67602;SDS011;54417;47.454;18.918;2022-09-06T10:49:22;3.72;;;2.67;;
67602;SDS011;54417;47.454;18.918;2022-09-06T10:54:45;6.25;;;3.00;;
67602;SDS011;54417;47.454;18.918;2022-09-06T11:00:11;5.07;;;2.92;;
67602;SDS011;54417;47.454;18.918;2022-09-06T11:05:37;3.97;;;2.40;;
67602;SDS011;54417;47.454;18.918;2022-09-06T11:11:09;2.78;;;2.50;;
67602;SDS011;54417;47.454;18.918;2022-09-06T11:16:41;2.38;;;1.85;;
67602;SDS011;54417;47.454;18.918;2022-09-06T11:22:27;2.35;;;1.77;;
67602;SDS011;54417;47.454;18.918;2022-09-06T11:28:08;5.07;;;1.92;;
67602;SDS011;54417;47.454;18.918;2022-09-06T11:33:37;5.00;;;2.25;;
67602;SDS011;54417;47.454;18.918;2022-09-06T11:39:02;4.07;;;1.90;;
67602;SDS011;54417;47.454;18.918;2022-09-06T11:50:24;5.38;;;1.88;;
67602;SDS011;54417;47.454;18.918;2022-09-06T11:56:09;4.30;;;2.50;;
67602;SDS011;54417;47.454;18.918;2022-09-06T12:01:58;3.70;;;2.25;;
67602;SDS011;54417;47.454;18.918;2022-09-06T12:07:24;4.00;;;1.90;;
67602;SDS011;54417;47.454;18.918;2022-09-06T12:12:49;2.90;;;1.92;;
67602;SDS011;54417;47.454;18.918;2022-09-06T12:30:31;4.05;;;2.03;;
67602;SDS011;54417;47.454;18.918;2022-09-06T12:36:15;3.80;;;1.80;;
67602;SDS011;54417;47.454;18.918;2022-09-06T12:41:42;2.25;;;1.60;;
67602;SDS011;54417;47.454;18.918;2022-09-06T12:47:09;3.65;;;2.00;;
67602;SDS011;54417;47.454;18.918;2022-09-06T12:52:42;2.78;;;2.15;;
67602;SDS011;54417;47.454;18.918;2022-09-06T12:58:09;2.40;;;2.13;;
67602;SDS011;54417;47.454;18.918;2022-09-06T13:03:35;3.70;;;2.20;;
67602;SDS011;54417;47.454;18.918;2022-09-06T13:09:02;2.55;;;1.52;;
67602;SDS011;54417;47.454;18.918;2022-09-06T13:14:29;4.43;;;1.90;;
67602;SDS011;54417;47.454;18.918;2022-09-06T13:19:55;3.92;;;1.92;;
67602;SDS011;54417;47.454;18.918;2022-09-06T13:25:24;6.18;;;1.98;;
67602;SDS011;54417;47.454;18.918;2022-09-06T13:30:59;6.55;;;1.73;;
67602;SDS011;54417;47.454;18.918;2022-09-06T13:36:25;6.00;;;2.00;;
67602;SDS011;54417;47.454;18.918;2022-09-06T13:41:53;5.65;;;2.45;;
67602;SDS011;54417;47.454;18.918;2022-09-06T13:47:19;6.15;;;1.95;;
67602;SDS011;54417;47.454;18.918;2022-09-06T13:52:43;5.50;;;2.20;;
67602;SDS011;54417;47.454;18.918;2022-09-06T13:58:07;6.68;;;2.30;;
67602;SDS011;54417;47.454;18.918;2022-09-06T14:03:32;3.35;;;2.38;;
67602;SDS011;54417;47.454;18.918;2022-09-06T14:08:56;3.05;;;2.00;;
67602;SDS011;54417;47.454;18.918;2022-09-06T14:14:29;2.33;;;1.98;;
67602;SDS011;54417;47.454;18.918;2022-09-06T14:19:54;5.13;;;2.28;;
67602;SDS011;54417;47.454;18.918;2022-09-06T14:25:17;6.53;;;2.17;;
67602;SDS011;54417;47.454;18.918;2022-09-06T14:30:41;5.53;;;2.30;;
67602;SDS011;54417;47.454;18.918;2022-09-06T14:36:07;3.28;;;2.10;;
67602;SDS011;54417;47.454;18.918;2022-09-06T14:41:32;4.50;;;2.47;;
67602;SDS011;54417;47.454;18.918;2022-09-06T14:46:56;18.23;;;2.22;;
67602;SDS011;54417;47.454;18.918;2022-09-06T14:52:22;4.55;;;1.88;;
67602;SDS011;54417;47.454;18.918;2022-09-06T14:57:46;6.55;;;2.30;;
67602;SDS011;54417;47.454;18.918;2022-09-06T15:03:10;5.28;;;1.85;;
67602;SDS011;54417;47.454;18.918;2022-09-06T15:08:35;6.85;;;2.38;;
67602;SDS011;54417;47.454;18.918;2022-09-06T15:13:59;4.15;;;2.53;;
67602;SDS011;54417;47.454;18.918;2022-09-06T15:19:23;7.80;;;4.60;;
67602;SDS011;54417;47.454;18.918;2022-09-06T15:24:49;7.22;;;5.15;;
67602;SDS011;54417;47.454;18.918;2022-09-06T15:30:13;7.38;;;5.03;;
67602;SDS011;54417;47.454;18.918;2022-09-06T15:35:37;8.43;;;5.45;;
67602;SDS011;54417;47.454;18.918;2022-09-06T15:41:05;18.92;;;7.85;;
67602;SDS011;54417;47.454;18.918;2022-09-06T15:46:39;14.52;;;7.07;;
67602;SDS011;54417;47.454;18.918;2022-09-06T15:52:05;8.48;;;6.88;;
67602;SDS011;54417;47.454;18.918;2022-09-06T15:57:31;11.18;;;6.90;;
67602;SDS011;54417;47.454;18.918;2022-09-06T16:02:55;16.30;;;7.47;;
67602;SDS011;54417;47.454;18.918;2022-09-06T16:08:19;14.02;;;7.97;;
67602;SDS011;54417;47.454;18.918;2022-09-06T16:13:44;8.07;;;5.78;;
67602;SDS011;54417;47.454;18.918;2022-09-06T16:19:08;11.77;;;7.57;;
67602;SDS011;54417;47.454;18.918;2022-09-06T16:24:33;6.95;;;5.53;;
67602;SDS011;54417;47.454;18.918;2022-09-06T16:29:58;5.40;;;4.90;;
67602;SDS011;54417;47.454;18.918;2022-09-06T16:35:22;5.50;;;4.47;;
67602;SDS011;54417;47.454;18.918;2022-09-06T16:40:46;7.03;;;4.65;;
67602;SDS011;54417;47.454;18.918;2022-09-06T16:46:11;5.57;;;5.07;;
67602;SDS011;54417;47.454;18.918;2022-09-06T16:51:36;5.85;;;5.35;;
67602;SDS011;54417;47.454;18.918;2022-09-06T16:57:00;6.43;;;5.82;;
67602;SDS011;54417;47.454;18.918;2022-09-06T17:02:25;7.57;;;6.88;;
67602;SDS011;54417;47.454;18.918;2022-09-06T17:07:49;9.77;;;8.20;;
67602;SDS011;54417;47.454;18.918;2022-09-06T17:13:13;8.32;;;7.43;;
67602;SDS011;54417;47.454;18.918;2022-09-06T17:18:38;9.40;;;6.93;;
67602;SDS011;54417;47.454;18.918;2022-09-06T17:24:02;7.65;;;6.85;;
67602;SDS011;54417;47.454;18.918;2022-09-06T17:29:26;7.70;;;6.97;;
67602;SDS011;54417;47.454;18.918;2022-09-06T17:34:51;7.65;;;6.97;;
67602;SDS011;54417;47.454;18.918;2022-09-06T17:40:15;8.38;;;7.50;;
67602;SDS011;54417;47.454;18.918;2022-09-06T17:45:39;7.90;;;7.10;;
67602;SDS011;54417;47.454;18.918;2022-09-06T17:51:06;7.78;;;6.97;;
67602;SDS011;54417;47.454;18.918;2022-09-06T17:56:31;7.70;;;6.95;;
67602;SDS011;54417;47.454;18.918;2022-09-06T18:01:55;8.85;;;7.97;;
67602;SDS011;54417;47.454;18.918;2022-09-06T18:07:20;8.70;;;7.80;;
67602;SDS011;54417;47.454;18.918;2022-09-06T18:12:44;9.52;;;7.80;;
67602;SDS011;54417;47.454;18.918;2022-09-06T18:18:08;7.93;;;7.22;;
67602;SDS011;54417;47.454;18.918;2022-09-06T18:23:33;8.88;;;8.02;;
67602;SDS011;54417;47.454;18.918;2022-09-06T18:28:57;11.85;;;9.07;;
67602;SDS011;54417;47.454;18.918;2022-09-06T18:34:21;16.77;;;9.63;;
67602;SDS011;54417;47.454;18.918;2022-09-06T18:39:46;9.00;;;8.05;;
67602;SDS011;54417;47.454;18.918;2022-09-06T18:45:10;14.27;;;9.40;;
67602;SDS011;54417;47.454;18.918;2022-09-06T18:50:35;11.93;;;10.68;;
67602;SDS011;54417;47.454;18.918;2022-09-06T18:56:01;10.48;;;8.35;;
67602;SDS011;54417;47.454;18.918;2022-09-06T19:01:25;10.27;;;8.00;;
67602;SDS011;54417;47.454;18.918;2022-09-06T19:06:51;8.48;;;7.13;;
67602;SDS011;54417;47.454;18.918;2022-09-06T19:12:16;10.10;;;7.97;;
67602;SDS011;54417;47.454;18.918;2022-09-06T19:17:40;9.18;;;7.68;;
67602;SDS011;54417;47.454;18.918;2022-09-06T19:23:04;11.30;;;8.93;;
67602;SDS011;54417;47.454;18.918;2022-09-06T19:28:29;11.93;;;9.20;;
67602;SDS011;54417;47.454;18.918;2022-09-06T19:33:53;8.27;;;7.30;;
67602;SDS011;54417;47.454;18.918;2022-09-06T19:39:17;10.57;;;8.80;;
67602;SDS011;54417;47.454;18.918;2022-09-06T19:44:43;12.10;;;8.38;;
67602;SDS011;54417;47.454;18.918;2022-09-06T19:50:07;15.52;;;8.63;;
67602;SDS011;54417;47.454;18.918;2022-09-06T19:55:31;10.50;;;8.55;;
67602;SDS011;54417;47.454;18.918;2022-09-06T20:00:56;13.80;;;9.48;;
67602;SDS011;54417;47.454;18.918;2022-09-06T20:06:20;11.63;;;8.18;;
67602;SDS011;54417;47.454;18.918;2022-09-06T20:11:44;9.98;;;7.40;;
67602;SDS011;54417;47.454;18.918;2022-09-06T20:17:09;9.77;;;8.35;;
67602;SDS011;54417;47.454;18.918;2022-09-06T20:22:53;11.60;;;7.68;;
67602;SDS011;54417;47.454;18.918;2022-09-06T20:28:17;10.15;;;7.75;;
67602;SDS011;54417;47.454;18.918;2022-09-06T20:33:42;9.48;;;8.48;;
67602;SDS011;54417;47.454;18.918;2022-09-06T20:39:10;10.45;;;7.80;;
67602;SDS011;54417;47.454;18.918;2022-09-06T20:44:34;18.23;;;9.55;;
67602;SDS011;54417;47.454;18.918;2022-09-06T20:49:59;13.80;;;9.73;;
67602;SDS011;54417;47.454;18.918;2022-09-06T20:55:23;13.68;;;10.77;;
67602;SDS011;54417;47.454;18.918;2022-09-06T21:00:47;15.18;;;11.05;;
67602;SDS011;54417;47.454;18.918;2022-09-06T21:06:12;16.13;;;10.65;;
67602;SDS011;54417;47.454;18.918;2022-09-06T21:11:36;19.30;;;11.18;;
67602;SDS011;54417;47.454;18.918;2022-09-06T21:17:00;15.15;;;11.32;;
67602;SDS011;54417;47.454;18.918;2022-09-06T21:22:25;14.45;;;11.10;;
67602;SDS011;54417;47.454;18.918;2022-09-06T21:27:49;16.92;;;11.18;;
67602;SDS011;54417;47.454;18.918;2022-09-06T21:33:16;16.08;;;11.30;;
67602;SDS011;54417;47.454;18.918;2022-09-06T21:38:42;14.10;;;12.02;;
67602;SDS011;54417;47.454;18.918;2022-09-06T21:44:07;14.63;;;12.98;;
67602;SDS011;54417;47.454;18.918;2022-09-06T21:49:31;16.08;;;11.52;;
67602;SDS011;54417;47.454;18.918;2022-09-06T21:54:56;20.23;;;12.75;;
67602;SDS011;54417;47.454;18.918;2022-09-06T22:00:20;13.98;;;12.20;;
67602;SDS011;54417;47.454;18.918;2022-09-06T22:05:44;15.60;;;11.43;;
67602;SDS011;54417;47.454;18.918;2022-09-06T22:11:10;10.90;;;9.10;;
67602;SDS011;54417;47.454;18.918;2022-09-06T22:16:36;13.13;;;10.82;;
67602;SDS011;54417;47.454;18.918;2022-09-06T22:22:01;17.08;;;12.40;;
67602;SDS011;54417;47.454;18.918;2022-09-06T22:27:26;18.73;;;12.35;;
67602;SDS011;54417;47.454;18.918;2022-09-06T22:32:49;16.83;;;13.77;;
67602;SDS011;54417;47.454;18.918;2022-09-06T22:38:13;18.55;;;12.30;;
67602;SDS011;54417;47.454;18.918;2022-09-06T22:43:38;18.83;;;13.15;;
67602;SDS011;54417;47.454;18.918;2022-09-06T22:49:02;14.93;;;10.75;;
67602;SDS011;54417;47.454;18.918;2022-09-06T22:54:26;14.15;;;10.77;;
67602;SDS011;54417;47.454;18.918;2022-09-06T22:59:51;15.75;;;10.98;;
67602;SDS011;54417;47.454;18.918;2022-09-06T23:05:15;15.77;;;12.40;;
67602;SDS011;54417;47.454;18.918;2022-09-06T23:10:39;25.20;;;11.85;;
67602;SDS011;54417;47.454;18.918;2022-09-06T23:16:06;13.45;;;11.30;;
67602;SDS011;54417;47.454;18.918;2022-09-06T23:21:31;14.93;;;10.20;;
67602;SDS011;54417;47.454;18.918;2022-09-06T23:26:55;19.42;;;12.60;;
67602;SDS011;54417;47.454;18.918;2022-09-06T23:32:20;21.33;;;14.73;;
67602;SDS011;54417;47.454;18.918;2022-09-06T23:37:43;16.95;;;12.93;;
67602;SDS011;54417;47.454;18.918;2022-09-06T23:43:07;14.15;;;10.68;;
67602;SDS011;54417;47.454;18.918;2022-09-06T23:48:32;14.10;;;11.90;;
67602;SDS011;54417;47.454;18.918;2022-09-06T23:53:56;13.38;;;10.68;;
67602;SDS011;54417;47.454;18.918;2022-09-06T23:59:20;16.98;;;10.90;;
